sensor_id;sensor_type;location;lat;lon;timestamp;P1;durP1;ratioP1;P2;durP2;ratioP2
58015;SDS011;43809;52.110;20.964;2023-04-16T00:00:40;4.72;;;3.60;;
58015;SDS011;43809;52.110;20.964;2023-04-16T00:02:40;5.57;;;4.40;;
58015;SDS011;43809;52.110;20.964;2023-04-16T00:04:40;4.90;;;4.10;;
58015;SDS011;43809;52.110;20.964;2023-04-16T00:06:41;4.90;;;3.42;;
58015;SDS011;43809;52.110;20.964;2023-04-16T00:08:41;5.57;;;3.80;;
58015;SDS011;43809;52.110;20.964;2023-04-16T00:10:42;5.68;;;3.50;;
58015;SDS011;43809;52.110;20.964;2023-04-16T00:12:42;4.18;;;3.53;;
58015;SDS011;43809;52.110;20.964;2023-04-16T00:14:43;4.40;;;3.15;;
58015;SDS011;43809;52.110;20.964;2023-04-16T00:16:43;5.82;;;4.13;;
58015;SDS011;43809;52.110;20.964;2023-04-16T00:18:43;4.82;;;3.78;;
58015;SDS011;43809;52.110;20.964;2023-04-16T00:20:43;4.53;;;3.63;;
58015;SDS011;43809;52.110;20.964;2023-04-16T00:22:44;5.05;;;3.85;;
58015;SDS011;43809;52.110;20.964;2023-04-16T00:24:44;5.47;;;3.90;;
58015;SDS011;43809;52.110;20.964;2023-04-16T00:26:44;5.00;;;3.75;;
58015;SDS011;43809;52.110;20.964;2023-04-16T00:28:45;5.90;;;4.00;;
58015;SDS011;43809;52.110;20.964;2023-04-16T00:30:45;3.95;;;3.40;;
58015;SDS011;43809;52.110;20.964;2023-04-16T00:32:45;4.35;;;3.30;;
58015;SDS011;43809;52.110;20.964;2023-04-16T00:34:45;6.15;;;4.15;;
58015;SDS011;43809;52.110;20.964;2023-04-16T00:36:46;5.78;;;4.60;;
58015;SDS011;43809;52.110;20.964;2023-04-16T00:38:46;5.30;;;3.57;;
58015;SDS011;43809;52.110;20.964;2023-04-16T00:40:46;5.55;;;4.10;;
58015;SDS011;43809;52.110;20.964;2023-04-16T00:42:46;5.30;;;3.90;;
58015;SDS011;43809;52.110;20.964;2023-04-16T00:44:46;4.82;;;3.65;;
58015;SDS011;43809;52.110;20.964;2023-04-16T00:46:47;5.00;;;3.60;;
58015;SDS011;43809;52.110;20.964;2023-04-16T00:48:47;4.10;;;3.53;;
58015;SDS011;43809;52.110;20.964;2023-04-16T00:50:47;4.25;;;3.30;;
58015;SDS011;43809;52.110;20.964;2023-04-16T00:52:48;5.00;;;3.47;;
58015;SDS011;43809;52.110;20.964;2023-04-16T00:54:48;3.50;;;2.88;;
58015;SDS011;43809;52.110;20.964;2023-04-16T00:56:49;4.57;;;3.00;;
58015;SDS011;43809;52.110;20.964;2023-04-16T00:58:49;4.10;;;3.33;;
58015;SDS011;43809;52.110;20.964;2023-04-16T01:00:50;4.22;;;2.85;;
58015;SDS011;43809;52.110;20.964;2023-04-16T01:02:50;4.65;;;3.05;;
58015;SDS011;43809;52.110;20.964;2023-04-16T01:04:51;4.05;;;3.55;;
58015;SDS011;43809;52.110;20.964;2023-04-16T01:06:51;4.72;;;4.07;;
58015;SDS011;43809;52.110;20.964;2023-04-16T01:08:51;5.10;;;3.72;;
58015;SDS011;43809;52.110;20.964;2023-04-16T01:10:51;4.70;;;3.33;;
58015;SDS011;43809;52.110;20.964;2023-04-16T01:12:52;4.40;;;3.13;;
58015;SDS011;43809;52.110;20.964;2023-04-16T01:14:52;3.50;;;3.20;;
58015;SDS011;43809;52.110;20.964;2023-04-16T01:16:52;3.67;;;2.63;;
58015;SDS011;43809;52.110;20.964;2023-04-16T01:18:52;4.43;;;3.40;;
58015;SDS011;43809;52.110;20.964;2023-04-16T01:20:53;3.95;;;2.95;;
58015;SDS011;43809;52.110;20.964;2023-04-16T01:22:53;4.85;;;2.70;;
58015;SDS011;43809;52.110;20.964;2023-04-16T01:24:53;3.85;;;2.72;;
58015;SDS011;43809;52.110;20.964;2023-04-16T01:26:53;4.73;;;3.40;;
58015;SDS011;43809;52.110;20.964;2023-04-16T01:28:53;4.35;;;3.00;;
58015;SDS011;43809;52.110;20.964;2023-04-16T01:30:54;3.20;;;2.80;;
58015;SDS011;43809;52.110;20.964;2023-04-16T01:32:54;3.10;;;2.58;;
58015;SDS011;43809;52.110;20.964;2023-04-16T01:34:54;3.72;;;2.70;;
58015;SDS011;43809;52.110;20.964;2023-04-16T01:36:54;4.22;;;3.15;;
58015;SDS011;43809;52.110;20.964;2023-04-16T01:38:54;4.82;;;3.80;;
58015;SDS011;43809;52.110;20.964;2023-04-16T01:40:55;4.40;;;2.88;;
58015;SDS011;43809;52.110;20.964;2023-04-16T01:42:56;5.20;;;3.55;;
58015;SDS011;43809;52.110;20.964;2023-04-16T01:44:56;5.43;;;4.10;;
58015;SDS011;43809;52.110;20.964;2023-04-16T01:46:56;5.28;;;4.32;;
58015;SDS011;43809;52.110;20.964;2023-04-16T01:48:57;6.25;;;4.60;;
58015;SDS011;43809;52.110;20.964;2023-04-16T01:50:57;5.57;;;4.38;;
58015;SDS011;43809;52.110;20.964;2023-04-16T01:52:59;5.93;;;4.45;;
58015;SDS011;43809;52.110;20.964;2023-04-16T01:55:01;5.43;;;3.80;;
58015;SDS011;43809;52.110;20.964;2023-04-16T01:57:01;5.38;;;4.32;;
58015;SDS011;43809;52.110;20.964;2023-04-16T01:59:02;6.88;;;5.07;;
58015;SDS011;43809;52.110;20.964;2023-04-16T02:01:02;7.57;;;4.88;;
58015;SDS011;43809;52.110;20.964;2023-04-16T02:03:03;6.40;;;4.70;;
58015;SDS011;43809;52.110;20.964;2023-04-16T02:05:03;6.80;;;4.85;;
58015;SDS011;43809;52.110;20.964;2023-04-16T02:07:04;6.20;;;5.18;;
58015;SDS011;43809;52.110;20.964;2023-04-16T02:09:04;7.03;;;5.20;;
58015;SDS011;43809;52.110;20.964;2023-04-16T02:11:04;7.22;;;5.25;;
58015;SDS011;43809;52.110;20.964;2023-04-16T02:13:04;7.00;;;5.57;;
58015;SDS011;43809;52.110;20.964;2023-04-16T02:15:05;8.88;;;5.72;;
58015;SDS011;43809;52.110;20.964;2023-04-16T02:17:05;9.55;;;5.50;;
58015;SDS011;43809;52.110;20.964;2023-04-16T02:19:05;9.13;;;6.18;;
58015;SDS011;43809;52.110;20.964;2023-04-16T02:21:06;9.10;;;6.38;;
58015;SDS011;43809;52.110;20.964;2023-04-16T02:23:06;8.40;;;6.00;;
58015;SDS011;43809;52.110;20.964;2023-04-16T02:25:07;10.00;;;7.18;;
58015;SDS011;43809;52.110;20.964;2023-04-16T02:27:07;10.68;;;7.55;;
58015;SDS011;43809;52.110;20.964;2023-04-16T02:29:07;9.23;;;7.40;;
58015;SDS011;43809;52.110;20.964;2023-04-16T02:31:07;8.82;;;6.95;;
58015;SDS011;43809;52.110;20.964;2023-04-16T02:33:08;7.47;;;6.57;;
58015;SDS011;43809;52.110;20.964;2023-04-16T02:35:09;8.90;;;6.45;;
58015;SDS011;43809;52.110;20.964;2023-04-16T02:37:09;9.98;;;7.40;;
58015;SDS011;43809;52.110;20.964;2023-04-16T02:39:10;9.52;;;6.90;;
58015;SDS011;43809;52.110;20.964;2023-04-16T02:41:10;8.85;;;6.53;;
58015;SDS011;43809;52.110;20.964;2023-04-16T02:43:11;10.20;;;7.97;;
58015;SDS011;43809;52.110;20.964;2023-04-16T02:45:11;7.90;;;6.53;;
58015;SDS011;43809;52.110;20.964;2023-04-16T02:47:11;8.50;;;6.60;;
58015;SDS011;43809;52.110;20.964;2023-04-16T02:49:11;9.50;;;6.57;;
58015;SDS011;43809;52.110;20.964;2023-04-16T02:51:11;11.53;;;7.17;;
58015;SDS011;43809;52.110;20.964;2023-04-16T02:53:12;11.45;;;7.85;;
58015;SDS011;43809;52.110;20.964;2023-04-16T02:55:12;9.98;;;6.72;;
58015;SDS011;43809;52.110;20.964;2023-04-16T02:57:12;10.05;;;7.30;;
58015;SDS011;43809;52.110;20.964;2023-04-16T02:59:12;10.82;;;7.82;;
58015;SDS011;43809;52.110;20.964;2023-04-16T03:01:12;10.82;;;6.70;;
58015;SDS011;43809;52.110;20.964;2023-04-16T03:03:13;9.10;;;6.68;;
58015;SDS011;43809;52.110;20.964;2023-04-16T03:05:13;11.38;;;7.78;;
58015;SDS011;43809;52.110;20.964;2023-04-16T03:07:13;9.02;;;6.72;;
58015;SDS011;43809;52.110;20.964;2023-04-16T03:09:14;13.77;;;8.57;;
58015;SDS011;43809;52.110;20.964;2023-04-16T03:11:14;13.02;;;8.30;;
58015;SDS011;43809;52.110;20.964;2023-04-16T03:13:14;10.07;;;7.13;;
58015;SDS011;43809;52.110;20.964;2023-04-16T03:15:14;7.95;;;6.10;;
58015;SDS011;43809;52.110;20.964;2023-04-16T03:17:15;6.78;;;5.22;;
58015;SDS011;43809;52.110;20.964;2023-04-16T03:19:15;8.55;;;5.70;;
58015;SDS011;43809;52.110;20.964;2023-04-16T03:21:15;10.07;;;6.57;;
58015;SDS011;43809;52.110;20.964;2023-04-16T03:23:15;9.35;;;6.88;;
58015;SDS011;43809;52.110;20.964;2023-04-16T03:25:15;9.77;;;7.32;;
58015;SDS011;43809;52.110;20.964;2023-04-16T03:27:16;9.93;;;7.10;;
58015;SDS011;43809;52.110;20.964;2023-04-16T03:29:16;9.63;;;6.17;;
58015;SDS011;43809;52.110;20.964;2023-04-16T03:31:16;10.25;;;6.85;;
58015;SDS011;43809;52.110;20.964;2023-04-16T03:33:16;9.93;;;7.00;;
58015;SDS011;43809;52.110;20.964;2023-04-16T03:35:17;9.32;;;6.13;;
58015;SDS011;43809;52.110;20.964;2023-04-16T03:37:17;8.82;;;6.38;;
58015;SDS011;43809;52.110;20.964;2023-04-16T03:39:17;10.02;;;6.75;;
58015;SDS011;43809;52.110;20.964;2023-04-16T03:41:18;9.15;;;6.85;;
58015;SDS011;43809;52.110;20.964;2023-04-16T03:43:18;10.77;;;6.88;;
58015;SDS011;43809;52.110;20.964;2023-04-16T03:45:18;10.15;;;6.65;;
58015;SDS011;43809;52.110;20.964;2023-04-16T03:47:19;10.17;;;6.50;;
58015;SDS011;43809;52.110;20.964;2023-04-16T03:49:20;10.68;;;7.43;;
58015;SDS011;43809;52.110;20.964;2023-04-16T03:51:20;8.95;;;6.35;;
58015;SDS011;43809;52.110;20.964;2023-04-16T03:53:20;11.32;;;7.20;;
58015;SDS011;43809;52.110;20.964;2023-04-16T03:55:20;9.05;;;6.32;;
58015;SDS011;43809;52.110;20.964;2023-04-16T03:57:20;8.87;;;5.70;;
58015;SDS011;43809;52.110;20.964;2023-04-16T03:59:21;8.23;;;5.72;;
58015;SDS011;43809;52.110;20.964;2023-04-16T04:01:21;7.82;;;5.55;;
58015;SDS011;43809;52.110;20.964;2023-04-16T04:03:21;8.52;;;6.05;;
58015;SDS011;43809;52.110;20.964;2023-04-16T04:05:22;7.57;;;5.53;;
58015;SDS011;43809;52.110;20.964;2023-04-16T04:07:22;6.60;;;5.00;;
58015;SDS011;43809;52.110;20.964;2023-04-16T04:09:22;7.82;;;5.35;;
58015;SDS011;43809;52.110;20.964;2023-04-16T04:11:22;7.60;;;5.60;;
58015;SDS011;43809;52.110;20.964;2023-04-16T04:13:23;8.98;;;6.00;;
58015;SDS011;43809;52.110;20.964;2023-04-16T04:15:23;8.38;;;5.53;;
58015;SDS011;43809;52.110;20.964;2023-04-16T04:17:23;9.38;;;5.68;;
58015;SDS011;43809;52.110;20.964;2023-04-16T04:19:23;8.75;;;5.20;;
58015;SDS011;43809;52.110;20.964;2023-04-16T04:21:23;6.55;;;4.60;;
58015;SDS011;43809;52.110;20.964;2023-04-16T04:23:24;7.68;;;5.15;;
58015;SDS011;43809;52.110;20.964;2023-04-16T04:25:24;7.90;;;5.40;;
58015;SDS011;43809;52.110;20.964;2023-04-16T04:27:25;8.45;;;5.80;;
58015;SDS011;43809;52.110;20.964;2023-04-16T04:29:26;7.57;;;4.88;;
58015;SDS011;43809;52.110;20.964;2023-04-16T04:31:26;6.33;;;4.70;;
58015;SDS011;43809;52.110;20.964;2023-04-16T04:33:26;8.07;;;5.57;;
58015;SDS011;43809;52.110;20.964;2023-04-16T04:35:27;10.05;;;6.13;;
58015;SDS011;43809;52.110;20.964;2023-04-16T04:37:27;8.43;;;5.72;;
58015;SDS011;43809;52.110;20.964;2023-04-16T04:39:27;8.77;;;5.90;;
58015;SDS011;43809;52.110;20.964;2023-04-16T04:41:27;7.23;;;5.33;;
58015;SDS011;43809;52.110;20.964;2023-04-16T04:43:27;9.35;;;6.30;;
58015;SDS011;43809;52.110;20.964;2023-04-16T04:45:28;8.35;;;6.28;;
58015;SDS011;43809;52.110;20.964;2023-04-16T04:47:28;9.50;;;6.53;;
58015;SDS011;43809;52.110;20.964;2023-04-16T04:49:28;9.30;;;6.57;;
58015;SDS011;43809;52.110;20.964;2023-04-16T04:51:29;9.73;;;6.60;;
58015;SDS011;43809;52.110;20.964;2023-04-16T04:53:30;8.48;;;6.20;;
58015;SDS011;43809;52.110;20.964;2023-04-16T04:55:30;9.10;;;6.00;;
58015;SDS011;43809;52.110;20.964;2023-04-16T04:57:30;10.13;;;6.30;;
58015;SDS011;43809;52.110;20.964;2023-04-16T04:59:30;9.83;;;6.60;;
58015;SDS011;43809;52.110;20.964;2023-04-16T05:01:31;10.05;;;6.82;;
58015;SDS011;43809;52.110;20.964;2023-04-16T05:03:31;8.05;;;5.85;;
58015;SDS011;43809;52.110;20.964;2023-04-16T05:05:31;9.50;;;6.45;;
58015;SDS011;43809;52.110;20.964;2023-04-16T05:07:31;10.95;;;7.00;;
58015;SDS011;43809;52.110;20.964;2023-04-16T05:09:32;10.23;;;7.00;;
58015;SDS011;43809;52.110;20.964;2023-04-16T05:11:32;9.98;;;7.07;;
58015;SDS011;43809;52.110;20.964;2023-04-16T05:13:32;10.70;;;8.00;;
58015;SDS011;43809;52.110;20.964;2023-04-16T05:15:33;10.40;;;7.60;;
58015;SDS011;43809;52.110;20.964;2023-04-16T05:17:33;11.10;;;7.40;;
58015;SDS011;43809;52.110;20.964;2023-04-16T05:19:33;9.70;;;7.15;;
58015;SDS011;43809;52.110;20.964;2023-04-16T05:21:33;10.27;;;6.95;;
58015;SDS011;43809;52.110;20.964;2023-04-16T05:23:33;11.23;;;7.78;;
58015;SDS011;43809;52.110;20.964;2023-04-16T05:25:34;12.48;;;8.07;;
58015;SDS011;43809;52.110;20.964;2023-04-16T05:27:35;11.23;;;8.00;;
58015;SDS011;43809;52.110;20.964;2023-04-16T05:29:36;10.43;;;6.65;;
58015;SDS011;43809;52.110;20.964;2023-04-16T05:31:36;10.60;;;7.32;;
58015;SDS011;43809;52.110;20.964;2023-04-16T05:33:36;9.40;;;7.07;;
58015;SDS011;43809;52.110;20.964;2023-04-16T05:35:36;11.82;;;7.78;;
58015;SDS011;43809;52.110;20.964;2023-04-16T05:37:36;14.23;;;8.43;;
58015;SDS011;43809;52.110;20.964;2023-04-16T05:39:37;12.93;;;8.53;;
58015;SDS011;43809;52.110;20.964;2023-04-16T05:41:37;11.38;;;8.02;;
58015;SDS011;43809;52.110;20.964;2023-04-16T05:43:37;12.00;;;7.63;;
58015;SDS011;43809;52.110;20.964;2023-04-16T05:45:37;13.43;;;8.00;;
58015;SDS011;43809;52.110;20.964;2023-04-16T05:47:40;11.90;;;8.10;;
58015;SDS011;43809;52.110;20.964;2023-04-16T05:49:40;10.23;;;6.60;;
58015;SDS011;43809;52.110;20.964;2023-04-16T05:51:40;10.27;;;7.10;;
58015;SDS011;43809;52.110;20.964;2023-04-16T05:53:40;11.48;;;7.85;;
58015;SDS011;43809;52.110;20.964;2023-04-16T05:55:40;12.05;;;7.82;;
58015;SDS011;43809;52.110;20.964;2023-04-16T05:57:41;10.05;;;7.05;;
58015;SDS011;43809;52.110;20.964;2023-04-16T05:59:41;10.50;;;7.17;;
58015;SDS011;43809;52.110;20.964;2023-04-16T06:01:41;10.10;;;7.22;;
58015;SDS011;43809;52.110;20.964;2023-04-16T06:03:41;9.05;;;6.53;;
58015;SDS011;43809;52.110;20.964;2023-04-16T06:05:42;9.18;;;7.40;;
58015;SDS011;43809;52.110;20.964;2023-04-16T06:07:42;10.30;;;7.15;;
58015;SDS011;43809;52.110;20.964;2023-04-16T06:09:43;11.03;;;7.20;;
58015;SDS011;43809;52.110;20.964;2023-04-16T06:11:43;10.05;;;7.30;;
58015;SDS011;43809;52.110;20.964;2023-04-16T06:13:44;10.48;;;7.57;;
58015;SDS011;43809;52.110;20.964;2023-04-16T06:15:44;12.20;;;7.53;;
58015;SDS011;43809;52.110;20.964;2023-04-16T06:17:45;9.02;;;7.05;;
58015;SDS011;43809;52.110;20.964;2023-04-16T06:19:45;10.95;;;7.70;;
58015;SDS011;43809;52.110;20.964;2023-04-16T06:21:46;10.38;;;8.07;;
58015;SDS011;43809;52.110;20.964;2023-04-16T06:23:46;11.20;;;7.82;;
58015;SDS011;43809;52.110;20.964;2023-04-16T06:25:46;10.32;;;7.50;;
58015;SDS011;43809;52.110;20.964;2023-04-16T06:27:46;10.98;;;6.82;;
58015;SDS011;43809;52.110;20.964;2023-04-16T06:29:47;7.35;;;5.22;;
58015;SDS011;43809;52.110;20.964;2023-04-16T06:31:47;7.88;;;5.70;;
58015;SDS011;43809;52.110;20.964;2023-04-16T06:33:47;7.85;;;5.68;;
58015;SDS011;43809;52.110;20.964;2023-04-16T06:35:47;10.47;;;6.90;;
58015;SDS011;43809;52.110;20.964;2023-04-16T06:37:47;8.52;;;6.50;;
58015;SDS011;43809;52.110;20.964;2023-04-16T06:39:48;7.70;;;6.65;;
58015;SDS011;43809;52.110;20.964;2023-04-16T06:41:48;7.93;;;5.78;;
58015;SDS011;43809;52.110;20.964;2023-04-16T06:43:48;7.57;;;5.55;;
58015;SDS011;43809;52.110;20.964;2023-04-16T06:45:48;7.68;;;5.38;;
58015;SDS011;43809;52.110;20.964;2023-04-16T06:47:49;9.07;;;6.85;;
58015;SDS011;43809;52.110;20.964;2023-04-16T06:49:51;7.82;;;6.43;;
58015;SDS011;43809;52.110;20.964;2023-04-16T06:51:51;9.07;;;7.00;;
58015;SDS011;43809;52.110;20.964;2023-04-16T06:53:51;9.25;;;6.70;;
58015;SDS011;43809;52.110;20.964;2023-04-16T06:55:51;8.02;;;5.85;;
58015;SDS011;43809;52.110;20.964;2023-04-16T06:57:52;8.32;;;5.88;;
58015;SDS011;43809;52.110;20.964;2023-04-16T06:59:52;7.70;;;5.83;;
58015;SDS011;43809;52.110;20.964;2023-04-16T07:01:52;6.72;;;5.28;;
58015;SDS011;43809;52.110;20.964;2023-04-16T07:03:53;8.07;;;6.03;;
58015;SDS011;43809;52.110;20.964;2023-04-16T07:05:53;7.07;;;5.65;;
58015;SDS011;43809;52.110;20.964;2023-04-16T07:07:53;7.27;;;4.70;;
58015;SDS011;43809;52.110;20.964;2023-04-16T07:09:56;6.45;;;5.65;;
58015;SDS011;43809;52.110;20.964;2023-04-16T07:11:57;8.43;;;6.25;;
58015;SDS011;43809;52.110;20.964;2023-04-16T07:13:57;8.80;;;6.32;;
58015;SDS011;43809;52.110;20.964;2023-04-16T07:15:58;7.70;;;5.63;;
58015;SDS011;43809;52.110;20.964;2023-04-16T07:17:58;8.98;;;7.03;;
58015;SDS011;43809;52.110;20.964;2023-04-16T07:19:58;9.13;;;6.05;;
58015;SDS011;43809;52.110;20.964;2023-04-16T07:21:58;6.68;;;5.72;;
58015;SDS011;43809;52.110;20.964;2023-04-16T07:23:59;6.88;;;6.07;;
58015;SDS011;43809;52.110;20.964;2023-04-16T07:25:59;7.93;;;5.75;;
58015;SDS011;43809;52.110;20.964;2023-04-16T07:28:00;6.88;;;5.43;;
58015;SDS011;43809;52.110;20.964;2023-04-16T07:30:00;9.88;;;6.80;;
58015;SDS011;43809;52.110;20.964;2023-04-16T07:32:00;8.30;;;5.95;;
58015;SDS011;43809;52.110;20.964;2023-04-16T07:34:01;7.15;;;5.85;;
58015;SDS011;43809;52.110;20.964;2023-04-16T07:36:01;6.80;;;5.05;;
58015;SDS011;43809;52.110;20.964;2023-04-16T07:38:01;5.65;;;4.60;;
58015;SDS011;43809;52.110;20.964;2023-04-16T07:40:01;5.32;;;4.32;;
58015;SDS011;43809;52.110;20.964;2023-04-16T07:42:03;6.57;;;5.88;;
58015;SDS011;43809;52.110;20.964;2023-04-16T07:44:03;7.03;;;5.60;;
58015;SDS011;43809;52.110;20.964;2023-04-16T07:46:03;5.82;;;5.00;;
58015;SDS011;43809;52.110;20.964;2023-04-16T07:48:03;4.93;;;4.07;;
58015;SDS011;43809;52.110;20.964;2023-04-16T07:50:04;5.35;;;4.32;;
58015;SDS011;43809;52.110;20.964;2023-04-16T07:52:05;5.68;;;4.78;;
58015;SDS011;43809;52.110;20.964;2023-04-16T07:54:05;6.72;;;5.65;;
58015;SDS011;43809;52.110;20.964;2023-04-16T07:56:05;4.85;;;4.22;;
58015;SDS011;43809;52.110;20.964;2023-04-16T07:58:06;5.22;;;4.68;;
58015;SDS011;43809;52.110;20.964;2023-04-16T08:00:08;6.18;;;4.68;;
58015;SDS011;43809;52.110;20.964;2023-04-16T08:02:11;6.90;;;5.40;;
58015;SDS011;43809;52.110;20.964;2023-04-16T08:04:12;6.03;;;4.72;;
58015;SDS011;43809;52.110;20.964;2023-04-16T08:06:13;7.78;;;5.28;;
58015;SDS011;43809;52.110;20.964;2023-04-16T08:08:13;6.18;;;5.40;;
58015;SDS011;43809;52.110;20.964;2023-04-16T08:10:13;5.63;;;4.85;;
58015;SDS011;43809;52.110;20.964;2023-04-16T08:12:14;5.45;;;4.40;;
58015;SDS011;43809;52.110;20.964;2023-04-16T08:14:15;5.53;;;4.82;;
58015;SDS011;43809;52.110;20.964;2023-04-16T08:16:15;4.97;;;4.40;;
58015;SDS011;43809;52.110;20.964;2023-04-16T08:18:16;7.87;;;5.40;;
58015;SDS011;43809;52.110;20.964;2023-04-16T08:20:16;6.10;;;4.83;;
58015;SDS011;43809;52.110;20.964;2023-04-16T08:22:16;7.63;;;6.07;;
58015;SDS011;43809;52.110;20.964;2023-04-16T08:24:16;6.50;;;5.90;;
58015;SDS011;43809;52.110;20.964;2023-04-16T08:26:17;6.93;;;5.95;;
58015;SDS011;43809;52.110;20.964;2023-04-16T08:28:17;7.37;;;6.10;;
58015;SDS011;43809;52.110;20.964;2023-04-16T08:30:17;6.60;;;6.00;;
58015;SDS011;43809;52.110;20.964;2023-04-16T08:32:17;6.60;;;5.93;;
58015;SDS011;43809;52.110;20.964;2023-04-16T08:34:18;7.03;;;6.22;;
58015;SDS011;43809;52.110;20.964;2023-04-16T08:36:18;8.00;;;5.90;;
58015;SDS011;43809;52.110;20.964;2023-04-16T08:38:18;6.95;;;5.57;;
58015;SDS011;43809;52.110;20.964;2023-04-16T08:40:18;6.90;;;6.20;;
58015;SDS011;43809;52.110;20.964;2023-04-16T08:42:28;7.63;;;6.53;;
58015;SDS011;43809;52.110;20.964;2023-04-16T08:44:36;6.78;;;6.07;;
58015;SDS011;43809;52.110;20.964;2023-04-16T08:46:36;8.27;;;6.30;;
58015;SDS011;43809;52.110;20.964;2023-04-16T08:48:37;7.68;;;6.38;;
58015;SDS011;43809;52.110;20.964;2023-04-16T08:50:37;7.07;;;6.38;;
58015;SDS011;43809;52.110;20.964;2023-04-16T08:52:41;6.22;;;5.57;;
58015;SDS011;43809;52.110;20.964;2023-04-16T08:55:02;9.13;;;6.88;;
58015;SDS011;43809;52.110;20.964;2023-04-16T08:57:04;7.68;;;6.05;;
58015;SDS011;43809;52.110;20.964;2023-04-16T08:59:04;5.90;;;5.30;;
58015;SDS011;43809;52.110;20.964;2023-04-16T09:01:05;7.28;;;6.10;;
58015;SDS011;43809;52.110;20.964;2023-04-16T09:03:05;7.10;;;6.18;;
58015;SDS011;43809;52.110;20.964;2023-04-16T09:05:05;6.57;;;5.90;;
58015;SDS011;43809;52.110;20.964;2023-04-16T09:07:07;7.30;;;6.57;;
58015;SDS011;43809;52.110;20.964;2023-04-16T09:09:07;7.07;;;6.38;;
58015;SDS011;43809;52.110;20.964;2023-04-16T09:11:07;7.32;;;6.25;;
58015;SDS011;43809;52.110;20.964;2023-04-16T09:13:09;6.38;;;5.78;;
58015;SDS011;43809;52.110;20.964;2023-04-16T09:15:11;7.30;;;6.30;;
58015;SDS011;43809;52.110;20.964;2023-04-16T09:17:11;6.13;;;5.22;;
58015;SDS011;43809;52.110;20.964;2023-04-16T09:19:13;8.20;;;6.65;;
58015;SDS011;43809;52.110;20.964;2023-04-16T09:21:14;7.22;;;5.90;;
58015;SDS011;43809;52.110;20.964;2023-04-16T09:23:16;7.25;;;5.88;;
58015;SDS011;43809;52.110;20.964;2023-04-16T09:25:17;7.18;;;6.25;;
58015;SDS011;43809;52.110;20.964;2023-04-16T09:27:19;5.95;;;5.38;;
58015;SDS011;43809;52.110;20.964;2023-04-16T09:29:36;6.88;;;5.88;;
58015;SDS011;43809;52.110;20.964;2023-04-16T09:31:36;6.20;;;5.60;;
58015;SDS011;43809;52.110;20.964;2023-04-16T09:33:36;5.88;;;4.93;;
58015;SDS011;43809;52.110;20.964;2023-04-16T09:35:47;6.43;;;5.82;;
58015;SDS011;43809;52.110;20.964;2023-04-16T09:37:54;5.65;;;5.15;;
58015;SDS011;43809;52.110;20.964;2023-04-16T09:39:56;6.10;;;5.13;;
58015;SDS011;43809;52.110;20.964;2023-04-16T09:41:57;5.47;;;4.95;;
58015;SDS011;43809;52.110;20.964;2023-04-16T09:44:00;5.60;;;4.45;;
58015;SDS011;43809;52.110;20.964;2023-04-16T09:46:01;5.20;;;4.47;;
58015;SDS011;43809;52.110;20.964;2023-04-16T09:48:03;5.57;;;4.95;;
58015;SDS011;43809;52.110;20.964;2023-04-16T09:50:06;6.00;;;5.40;;
58015;SDS011;43809;52.110;20.964;2023-04-16T09:52:11;5.33;;;4.83;;
58015;SDS011;43809;52.110;20.964;2023-04-16T09:54:12;5.00;;;4.50;;
58015;SDS011;43809;52.110;20.964;2023-04-16T09:56:12;6.68;;;6.07;;
58015;SDS011;43809;52.110;20.964;2023-04-16T09:58:13;6.28;;;4.80;;
58015;SDS011;43809;52.110;20.964;2023-04-16T10:00:17;5.70;;;5.13;;
58015;SDS011;43809;52.110;20.964;2023-04-16T10:02:17;6.00;;;5.38;;
58015;SDS011;43809;52.110;20.964;2023-04-16T10:04:19;5.47;;;4.97;;
58015;SDS011;43809;52.110;20.964;2023-04-16T10:06:20;5.53;;;4.63;;
58015;SDS011;43809;52.110;20.964;2023-04-16T10:08:21;7.10;;;5.55;;
58015;SDS011;43809;52.110;20.964;2023-04-16T10:10:22;4.50;;;4.10;;
58015;SDS011;43809;52.110;20.964;2023-04-16T10:12:23;6.13;;;5.35;;
58015;SDS011;43809;52.110;20.964;2023-04-16T10:14:23;4.87;;;4.37;;
58015;SDS011;43809;52.110;20.964;2023-04-16T10:16:23;6.23;;;5.20;;
58015;SDS011;43809;52.110;20.964;2023-04-16T10:18:23;5.32;;;4.82;;
58015;SDS011;43809;52.110;20.964;2023-04-16T10:20:24;6.30;;;4.32;;
58015;SDS011;43809;52.110;20.964;2023-04-16T10:22:25;5.07;;;4.40;;
58015;SDS011;43809;52.110;20.964;2023-04-16T10:24:25;5.20;;;4.70;;
58015;SDS011;43809;52.110;20.964;2023-04-16T10:26:26;4.55;;;3.80;;
58015;SDS011;43809;52.110;20.964;2023-04-16T10:28:27;3.70;;;3.40;;
58015;SDS011;43809;52.110;20.964;2023-04-16T10:30:28;4.88;;;4.47;;
58015;SDS011;43809;52.110;20.964;2023-04-16T10:32:28;4.18;;;3.75;;
58015;SDS011;43809;52.110;20.964;2023-04-16T10:34:30;4.63;;;4.22;;
58015;SDS011;43809;52.110;20.964;2023-04-16T10:36:33;4.65;;;4.22;;
58015;SDS011;43809;52.110;20.964;2023-04-16T10:38:38;4.75;;;4.35;;
58015;SDS011;43809;52.110;20.964;2023-04-16T10:40:39;5.82;;;4.80;;
58015;SDS011;43809;52.110;20.964;2023-04-16T10:42:52;5.28;;;4.78;;
58015;SDS011;43809;52.110;20.964;2023-04-16T10:44:53;4.10;;;3.70;;
58015;SDS011;43809;52.110;20.964;2023-04-16T10:46:53;4.05;;;3.65;;
58015;SDS011;43809;52.110;20.964;2023-04-16T10:48:54;2.95;;;2.65;;
58015;SDS011;43809;52.110;20.964;2023-04-16T10:50:56;4.53;;;4.13;;
58015;SDS011;43809;52.110;20.964;2023-04-16T10:55:32;3.83;;;3.40;;
58015;SDS011;43809;52.110;20.964;2023-04-16T10:57:37;3.20;;;2.90;;
58015;SDS011;43809;52.110;20.964;2023-04-16T10:59:37;3.50;;;3.20;;
58015;SDS011;43809;52.110;20.964;2023-04-16T11:01:42;5.35;;;4.82;;
58015;SDS011;43809;52.110;20.964;2023-04-16T11:03:43;5.40;;;4.90;;
58015;SDS011;43809;52.110;20.964;2023-04-16T11:05:43;5.63;;;5.13;;
58015;SDS011;43809;52.110;20.964;2023-04-16T11:07:46;6.00;;;5.40;;
58015;SDS011;43809;52.110;20.964;2023-04-16T11:09:59;5.18;;;4.68;;
58015;SDS011;43809;52.110;20.964;2023-04-16T11:12:01;4.70;;;4.22;;
58015;SDS011;43809;52.110;20.964;2023-04-16T11:14:02;5.95;;;5.35;;
58015;SDS011;43809;52.110;20.964;2023-04-16T11:16:03;5.00;;;4.55;;
58015;SDS011;43809;52.110;20.964;2023-04-16T11:18:04;5.88;;;5.30;;
58015;SDS011;43809;52.110;20.964;2023-04-16T11:20:06;4.45;;;4.00;;
58015;SDS011;43809;52.110;20.964;2023-04-16T11:22:07;5.15;;;4.63;;
58015;SDS011;43809;52.110;20.964;2023-04-16T11:24:07;4.70;;;4.30;;
58015;SDS011;43809;52.110;20.964;2023-04-16T11:26:24;3.67;;;3.38;;
58015;SDS011;43809;52.110;20.964;2023-04-16T11:28:34;4.05;;;3.65;;
58015;SDS011;43809;52.110;20.964;2023-04-16T11:30:36;4.00;;;3.60;;
58015;SDS011;43809;52.110;20.964;2023-04-16T11:32:37;4.37;;;3.97;;
58015;SDS011;43809;52.110;20.964;2023-04-16T11:34:44;4.50;;;4.10;;
58015;SDS011;43809;52.110;20.964;2023-04-16T11:36:45;3.78;;;3.47;;
58015;SDS011;43809;52.110;20.964;2023-04-16T11:38:45;3.58;;;3.28;;
58015;SDS011;43809;52.110;20.964;2023-04-16T11:40:48;4.18;;;3.78;;
58015;SDS011;43809;52.110;20.964;2023-04-16T11:42:48;4.63;;;3.53;;
58015;SDS011;43809;52.110;20.964;2023-04-16T11:44:54;3.83;;;2.50;;
58015;SDS011;43809;52.110;20.964;2023-04-16T11:46:55;4.80;;;3.65;;
58015;SDS011;43809;52.110;20.964;2023-04-16T11:48:55;3.33;;;3.03;;
58015;SDS011;43809;52.110;20.964;2023-04-16T11:50:56;3.75;;;3.45;;
58015;SDS011;43809;52.110;20.964;2023-04-16T11:53:02;4.07;;;3.67;;
58015;SDS011;43809;52.110;20.964;2023-04-16T11:55:02;3.65;;;2.92;;
58015;SDS011;43809;52.110;20.964;2023-04-16T11:57:02;3.03;;;2.53;;
58015;SDS011;43809;52.110;20.964;2023-04-16T11:59:12;3.28;;;2.97;;